Tolhuin, Argentina

6:23 PM ART on August 30, 2015 (GMT -0300)
Ushuaia International Malvine Island | | Change Station
CLOSE
Current Station
Airport
Location: Ushuaia,
Elevation: 69 ft
Nearby Weather Stations

Elev 69 ft 54.84 °S, 68.31 °W | Updated 23 minutes ago

Snow
Snow
37 °F
Feels Like 25 °F
N
28
Wind Variable Wind from SW
Gusts 34 mph

Today
High -- | Low -- °F
--% Chance of Precip.
Yesterday
High -- | Low -- °F
Precip. -- in
8:15 AM 6:44 PM
Full, 98% visible
Pressure 29.36 in
Visibility 1.9 miles
Clouds Mostly Cloudy 1500 ft
Mostly Cloudy 2500 ft
Windchill 25 °F
Dew Point 36 °F
Humidity 93%
Rainfall 0.00 in
Snow Depth Not available.
UV 0 out of 12
Pollen Not available.
Air Quality Not available.
Flu Activity Not available.
METAR SAWH 302100Z 23024G30KT 3000 SN BKN015 BKN025 03/02 Q0994
Pressure 29.36 in
Visibility 1.9 miles
Clouds Mostly Cloudy 1500 ft
Mostly Cloudy 2500 ft
Windchill 25 °F
Dew Point 36 °F
Humidity 93%
Rainfall 0.00 in
Snow Depth Not available.
UV 0 out of 12
Pollen Not available.
Air Quality Not available.
Flu Activity Not available.
METAR SAWH 302100Z 23024G30KT 3000 SN BKN015 BKN025 03/02 Q0994

10-Day Weather Forecast

×

Almanac

Astronomy

Aug. 30, 2015 Rise Set
Actual Time
Civil Twilight
Nautical Twilight
Astronomical Twilight
Moon
Length of Visible Light
Length of Day
Tomorrow will be .
, % of the Moon is Illuminated

Today's Extremes

Country Highs Country Lows

Community

WunderPhotos

Upload Photos

1,851,063 photos uploaded!

WunderBlogs® & News

Nearby

Air Quality

  Air Quality AQ Index Pollutant
Not available.

Snow Depth

Station Depth Elevation

Earthquake Activity

City Distance Mag. Time & Date
Minimum magnitude displayed is 2.5.

Coastal Water Temperatures

Place Temperature

Stations

Nearby Weather Stations

Station Location Temp. Windchill Dew Point Humidity Wind Precip. Elev Updated Type